Sary-Arka Airport
UAKK : now visible

Airfield :











YOU CAN JOIN US ON...

 
LOGIN :

Register | Disclaimer

   EN    FR    IT 

 









Legend :    VFR   Marginal VFR   IFR   Intensive IFR   Very Intensive IFR
Visi :
Ceiling :
>= 8 km
>= 3000ft
5 to 8 km
1000 to 3000 ft
1500m to 5 km
500 to 1000 ft
800 to 1500m
200 to 500 ft
< 800m
< 200 ft
Symbols :   Thunderstorms  Fog  Heavy snow  Heavy precipitations  Wind > 20 kt






- Airport Elevation : 1765 ft
- IATA code : KGF


UAKK - Sary-Arka

CURRENT METAR :
  • 271943Z 24007MPS 5000 -SN SCT011 OVC017 M01/M03 Q1007 R23/550357 NOSIG RMK QFE709/0945

EXPIRED METARs :
  • 271930Z 23007MPS 2600 SHSN BKN006 OVC018CB M01/M03 Q1007 R23/550357 NOSIG RMK QBB200 QFE709/0945
  • 271927Z 23007MPS 1900 R23/P2000U SHSN BKN008 OVC018CB M01/M03 Q1007 R23/550357 NOSIG RMK QFE709/0945
  • 271900Z 23008MPS 9000 -SN BKN008 OVC016 M01/M03 Q1006 R23/550357 NOSIG RMK QFE708/0945
  • 271830Z 23009MPS 9999 -SN BKN010 OVC017 M01/M03 Q1006 R23/550357 NOSIG RMK QFE708/0944
  • 271800Z 23009G14MPS 9000 -SHSN BKN008 OVC017CB M02/M03 Q1006 R23/550357 NOSIG RMK QFE708/0944
  • 271730Z 24009MPS 9999 -SHSN BKN010 OVC020CB M02/M04 Q1006 R23/550357 NOSIG RMK QFE708/0944
  • 271712Z 24009MPS 7000 -SHSN BKN010 OVC018CB M02/M04 Q1006 R23/550357 NOSIG RMK QFE708/0944
  • 271700Z 23009G14MPS 7000 -SHSN SCT010 OVC018CB M02/M04 Q1005 R23/550357 NOSIG RMK QFE708/0944

TAF AMD TAF UAKK
Valid from the 27 at 18:00 until the 28 at 18:00 UTC


271830Z 2718/2818 25012MPS 5000 -SN BKN015 OVC100 TXM01/2810Z TNM03/2801Z
TEMPO 2718/2723 28015MPS 2000 FZRA SHSN SCT004 BKN011CB
BECMG 2723/2801 28007MPS
TEMPO 2723/2804 29010MPS 2000 SHSN SCT004 BKN011CB
FM280400 30006MPS 9999 SCT015 BKN100
TEMPO 2804/2812 30009MPS 3100 -SHSN BKN011CB
UACC FIR / Asia



MET'MAP, your aeronautical weather chart ! - Copyright ORBIFLY December 2007 - Disclaimer

ORBIFLY MET'MAP TEAM :

Programming & Development : Alexandra Zaïnal
Concept & original design : Baudouin d'Aumeries
Assistance for programming : Marc-Olivier Méhu
Technical & hardware support : Manuel Goepfert

Contact : metmap@orbifly.com




SOURCES & CREDITS :

   NOAA       Earth
Advisory